Anzahl Datensätze: 288
min. Temperatur: 3.6 °C
max. Temperatur: 17.7 °C
max. Windgeschwindigkeit: 17.6 km/h
Niederschlagsumme: 0.2 mm
| Datum |
Zeit |
Temp °C |
Feuchte % |
Taupunkt °C |
Luftdruck hPa |
Wind km/h |
Windrichtung |
Strahlung w/m² |
Niederschlag mm |
|---|---|---|---|---|---|---|---|---|---|
| 26.02.2026 | 00:03 | 4.9 | 93 | 3.9 | 1021.5 | 0.0 | S | 0 | 0.2 |
| 26.02.2026 | 00:09 | 4.8 | 94 | 3.9 | 1021.4 | 0.0 | S | 0 | 0.0 |
| 26.02.2026 | 00:12 | 4.8 | 93 | 3.8 | 1021.4 | 0.0 | S | 0 | 0.0 |
| 26.02.2026 | 00:18 | 4.8 | 94 | 3.9 | 1021.5 | 0.0 | S | 0 | 0.0 |
| 26.02.2026 | 00:24 | 4.9 | 94 | 4.0 | 1021.4 | 0.0 | S | 0 | 0.0 |
| 26.02.2026 | 00:27 | 4.9 | 94 | 4.0 | 1021.4 | 0.0 | S | 0 | 0.0 |
| 26.02.2026 | 00:33 | 4.9 | 94 | 4.0 | 1021.4 | 0.0 | S | 0 | 0.0 |
| 26.02.2026 | 00:39 | 4.9 | 94 | 4.0 | 1021.3 | 0.0 | S | 0 | 0.0 |
| 26.02.2026 | 00:42 | 4.9 | 94 | 4.0 | 1021.4 | 0.0 | S | 0 | 0.0 |
| 26.02.2026 | 00:48 | 4.9 | 94 | 4.0 | 1021.4 | 0.0 | S | 0 | 0.0 |
| 26.02.2026 | 00:54 | 4.8 | 94 | 3.9 | 1021.4 | 0.0 | S | 0 | 0.0 |
| 26.02.2026 | 00:57 | 4.8 | 94 | 3.9 | 1021.4 | 0.0 | S | 0 | 0.0 |
| 26.02.2026 | 01:03 | 4.7 | 94 | 3.8 | 1021.4 | 0.0 | S | 0 | 0.0 |
| 26.02.2026 | 01:09 | 4.6 | 94 | 3.7 | 1021.4 | 0.0 | S | 0 | 0.0 |
| 26.02.2026 | 01:12 | 4.6 | 94 | 3.7 | 1021.5 | 0.0 | S | 0 | 0.0 |
| 26.02.2026 | 01:18 | 4.5 | 94 | 3.6 | 1021.4 | 0.0 | S | 0 | 0.0 |
| 26.02.2026 | 01:24 | 4.4 | 94 | 3.5 | 1021.5 | 0.0 | S | 0 | 0.0 |
| 26.02.2026 | 01:27 | 4.4 | 94 | 3.5 | 1021.5 | 0.0 | S | 0 | 0.0 |
| 26.02.2026 | 01:33 | 4.4 | 94 | 3.5 | 1021.5 | 0.0 | S | 0 | 0.0 |
| 26.02.2026 | 01:39 | 4.3 | 94 | 3.4 | 1021.5 | 0.0 | S | 0 | 0.0 |
| 26.02.2026 | 01:42 | 4.3 | 94 | 3.4 | 1021.6 | 0.0 | S | 0 | 0.0 |
| 26.02.2026 | 01:48 | 4.3 | 94 | 3.4 | 1021.6 | 0.0 | S | 0 | 0.0 |
| 26.02.2026 | 01:54 | 4.3 | 94 | 3.4 | 1021.6 | 0.0 | S | 0 | 0.0 |
| 26.02.2026 | 01:57 | 4.2 | 94 | 3.3 | 1021.6 | 0.0 | S | 0 | 0.0 |
| 26.02.2026 | 02:03 | 4.2 | 94 | 3.3 | 1021.6 | 0.0 | WSW | 0 | 0.0 |
| 26.02.2026 | 02:09 | 4.1 | 94 | 3.2 | 1021.5 | 0.0 | WSW | 0 | 0.0 |
| 26.02.2026 | 02:12 | 4.1 | 94 | 3.2 | 1021.5 | 0.0 | WSW | 0 | 0.0 |
| 26.02.2026 | 02:18 | 4.1 | 94 | 3.2 | 1021.5 | 0.0 | WSW | 0 | 0.0 |
| 26.02.2026 | 02:24 | 4.0 | 94 | 3.1 | 1021.6 | 0.0 | WSW | 0 | 0.0 |
| 26.02.2026 | 02:27 | 4.1 | 94 | 3.2 | 1021.5 | 0.0 | WSW | 0 | 0.0 |
| 26.02.2026 | 02:33 | 4.0 | 94 | 3.1 | 1021.6 | 0.0 | WSW | 0 | 0.0 |
| 26.02.2026 | 02:39 | 3.9 | 95 | 3.2 | 1021.6 | 0.0 | WSW | 0 | 0.0 |
| 26.02.2026 | 02:42 | 3.9 | 95 | 3.2 | 1021.7 | 0.0 | WSW | 0 | 0.0 |
| 26.02.2026 | 02:48 | 3.9 | 95 | 3.2 | 1021.7 | 0.0 | WSW | 0 | 0.0 |
| 26.02.2026 | 02:54 | 3.9 | 95 | 3.2 | 1021.7 | 0.0 | WSW | 0 | 0.0 |
| 26.02.2026 | 02:57 | 3.8 | 95 | 3.1 | 1021.7 | 0.0 | WSW | 0 | 0.0 |
| 26.02.2026 | 03:03 | 3.8 | 94 | 2.9 | 1021.6 | 0.0 | WSW | 0 | 0.0 |
| 26.02.2026 | 03:09 | 3.7 | 95 | 3.0 | 1021.6 | 0.0 | WSW | 0 | 0.0 |
| 26.02.2026 | 03:12 | 3.7 | 94 | 2.8 | 1021.6 | 0.0 | WSW | 0 | 0.0 |
| 26.02.2026 | 03:18 | 3.7 | 95 | 3.0 | 1021.6 | 0.0 | WSW | 0 | 0.0 |
| 26.02.2026 | 03:24 | 3.6 | 94 | 2.7 | 1021.6 | 0.0 | WSW | 0 | 0.0 |
| 26.02.2026 | 03:27 | 3.6 | 95 | 2.9 | 1021.6 | 0.0 | WSW | 0 | 0.0 |
| 26.02.2026 | 03:33 | 3.6 | 95 | 2.9 | 1021.6 | 0.0 | WSW | 0 | 0.0 |
| 26.02.2026 | 03:39 | 3.6 | 95 | 2.9 | 1021.7 | 0.0 | WSW | 0 | 0.0 |
| 26.02.2026 | 03:42 | 3.6 | 95 | 2.9 | 1021.7 | 0.0 | WSW | 0 | 0.0 |
| 26.02.2026 | 03:48 | 3.6 | 95 | 2.9 | 1021.6 | 0.0 | WSW | 0 | 0.0 |
| 26.02.2026 | 03:54 | 3.6 | 95 | 2.9 | 1021.6 | 0.0 | WSW | 0 | 0.0 |
| 26.02.2026 | 03:57 | 3.6 | 95 | 2.9 | 1021.6 | 0.0 | WSW | 0 | 0.0 |
| 26.02.2026 | 04:03 | 3.7 | 95 | 3.0 | 1021.6 | 0.0 | WSW | 0 | 0.0 |
| 26.02.2026 | 04:09 | 3.8 | 95 | 3.1 | 1021.6 | 0.0 | WSW | 0 | 0.0 |
| 26.02.2026 | 04:12 | 3.8 | 95 | 3.1 | 1021.6 | 0.0 | WSW | 0 | 0.0 |
| 26.02.2026 | 04:18 | 3.9 | 95 | 3.2 | 1021.7 | 0.0 | WSW | 0 | 0.0 |
| 26.02.2026 | 04:24 | 3.9 | 95 | 3.2 | 1021.6 | 0.0 | WSW | 0 | 0.0 |
| 26.02.2026 | 04:27 | 3.9 | 95 | 3.2 | 1021.6 | 0.0 | WSW | 0 | 0.0 |
| 26.02.2026 | 04:33 | 4.1 | 95 | 3.4 | 1021.5 | 0.0 | WSW | 0 | 0.0 |
| 26.02.2026 | 04:39 | 4.2 | 95 | 3.5 | 1021.7 | 0.0 | WSW | 0 | 0.0 |
| 26.02.2026 | 04:42 | 4.2 | 95 | 3.5 | 1021.6 | 0.0 | WSW | 0 | 0.0 |
| 26.02.2026 | 04:48 | 4.3 | 95 | 3.6 | 1021.7 | 0.0 | WSW | 0 | 0.0 |
| 26.02.2026 | 04:54 | 4.3 | 95 | 3.6 | 1021.7 | 0.0 | WSW | 0 | 0.0 |
| 26.02.2026 | 04:57 | 4.3 | 95 | 3.6 | 1021.7 | 0.0 | WSW | 0 | 0.0 |
| 26.02.2026 | 05:03 | 4.4 | 95 | 3.7 | 1021.7 | 0.0 | WSW | 0 | 0.0 |
| 26.02.2026 | 05:09 | 4.5 | 95 | 3.8 | 1021.7 | 0.0 | WSW | 0 | 0.0 |
| 26.02.2026 | 05:12 | 4.5 | 95 | 3.8 | 1021.7 | 0.0 | WSW | 0 | 0.0 |
| 26.02.2026 | 05:18 | 4.6 | 95 | 3.9 | 1021.7 | 0.0 | WSW | 0 | 0.0 |
| 26.02.2026 | 05:24 | 4.6 | 95 | 3.9 | 1021.7 | 0.0 | WSW | 0 | 0.0 |
| 26.02.2026 | 05:27 | 4.6 | 95 | 3.9 | 1021.7 | 0.0 | WSW | 0 | 0.0 |
| 26.02.2026 | 05:33 | 4.7 | 95 | 4.0 | 1021.8 | 0.0 | WSW | 0 | 0.0 |
| 26.02.2026 | 05:39 | 4.8 | 95 | 4.1 | 1021.8 | 0.0 | SW | 0 | 0.0 |
| 26.02.2026 | 05:42 | 4.8 | 95 | 4.1 | 1021.7 | 0.0 | SSO | 0 | 0.0 |
| 26.02.2026 | 05:48 | 4.8 | 95 | 4.1 | 1021.7 | 0.0 | S | 0 | 0.0 |
| 26.02.2026 | 05:54 | 4.9 | 95 | 4.2 | 1021.7 | 0.0 | S | 0 | 0.0 |
| 26.02.2026 | 05:57 | 5.0 | 95 | 4.3 | 1021.8 | 0.0 | NW | 0 | 0.0 |
| 26.02.2026 | 06:03 | 5.1 | 96 | 4.5 | 1021.8 | 0.0 | NW | 0 | 0.0 |
| 26.02.2026 | 06:09 | 5.2 | 96 | 4.6 | 1021.9 | 0.0 | NW | 0 | 0.0 |
| 26.02.2026 | 06:12 | 5.3 | 95 | 4.6 | 1022.0 | 0.0 | NW | 0 | 0.0 |
| 26.02.2026 | 06:18 | 5.3 | 95 | 4.6 | 1022.1 | 0.0 | NW | 0 | 0.0 |
| 26.02.2026 | 06:24 | 5.4 | 96 | 4.8 | 1022.1 | 0.0 | NW | 0 | 0.0 |
| 26.02.2026 | 06:27 | 5.6 | 96 | 5.0 | 1022.1 | 0.0 | S | 0 | 0.0 |
| 26.02.2026 | 06:33 | 5.7 | 96 | 5.1 | 1022.1 | 0.0 | S | 0 | 0.0 |
| 26.02.2026 | 06:39 | 5.8 | 96 | 5.2 | 1022.1 | 0.0 | WSW | 0 | 0.0 |
| 26.02.2026 | 06:42 | 5.8 | 96 | 5.2 | 1022.2 | 0.0 | WSW | 0 | 0.0 |
| 26.02.2026 | 06:48 | 5.9 | 96 | 5.3 | 1022.3 | 0.0 | ONO | 0 | 0.0 |
| 26.02.2026 | 06:54 | 6.1 | 96 | 5.5 | 1022.3 | 0.0 | ONO | 0 | 0.0 |
| 26.02.2026 | 06:57 | 6.1 | 96 | 5.5 | 1022.3 | 0.0 | ONO | 0 | 0.0 |
| 26.02.2026 | 07:03 | 6.2 | 96 | 5.6 | 1022.2 | 0.0 | ONO | 0 | 0.0 |
| 26.02.2026 | 07:09 | 6.3 | 96 | 5.7 | 1022.2 | 0.0 | ONO | 0 | 0.0 |
| 26.02.2026 | 07:12 | 6.4 | 96 | 5.8 | 1022.2 | 0.0 | ONO | 0 | 0.0 |
| 26.02.2026 | 07:18 | 6.5 | 96 | 5.9 | 1022.2 | 0.0 | ONO | 0 | 0.0 |
| 26.02.2026 | 07:24 | 6.5 | 96 | 5.9 | 1022.3 | 0.0 | ONO | 0 | 0.0 |
| 26.02.2026 | 07:27 | 6.6 | 96 | 6.0 | 1022.3 | 0.0 | ONO | 0 | 0.0 |
| 26.02.2026 | 07:33 | 6.6 | 96 | 6.0 | 1022.3 | 0.0 | WSW | 0 | 0.0 |
| 26.02.2026 | 07:39 | 6.7 | 96 | 6.1 | 1022.4 | 0.0 | SW | 5 | 0.0 |
| 26.02.2026 | 07:42 | 6.7 | 96 | 6.1 | 1022.4 | 0.0 | SW | 7 | 0.0 |
| 26.02.2026 | 07:48 | 6.8 | 96 | 6.2 | 1022.4 | 0.0 | WSW | 11 | 0.0 |
| 26.02.2026 | 07:54 | 6.8 | 96 | 6.2 | 1022.4 | 1.4 | SSW | 16 | 0.0 |
| 26.02.2026 | 07:57 | 6.8 | 96 | 6.2 | 1022.4 | 1.4 | SSW | 16 | 0.0 |
| 26.02.2026 | 08:03 | 6.8 | 96 | 6.2 | 1022.4 | 0.0 | W | 16 | 0.0 |
| 26.02.2026 | 08:09 | 6.8 | 96 | 6.2 | 1022.5 | 1.4 | WNW | 16 | 0.0 |
| 26.02.2026 | 08:12 | 6.8 | 96 | 6.2 | 1022.6 | 1.4 | WSW | 16 | 0.0 |
| 26.02.2026 | 08:18 | 6.8 | 96 | 6.2 | 1022.7 | 1.4 | W | 16 | 0.0 |
| 26.02.2026 | 08:24 | 6.9 | 96 | 6.3 | 1022.9 | 1.4 | SW | 26 | 0.0 |
| 26.02.2026 | 08:27 | 6.9 | 96 | 6.3 | 1022.9 | 1.4 | SO | 30 | 0.0 |
| 26.02.2026 | 08:33 | 6.9 | 96 | 6.3 | 1022.8 | 0.0 | SO | 37 | 0.0 |
| 26.02.2026 | 08:39 | 6.9 | 96 | 6.3 | 1022.9 | 0.0 | SO | 39 | 0.0 |
| 26.02.2026 | 08:42 | 7.1 | 96 | 6.5 | 1022.9 | 0.0 | SO | 44 | 0.0 |
| 26.02.2026 | 08:48 | 7.0 | 96 | 6.4 | 1023.2 | 0.0 | S | 42 | 0.0 |
| 26.02.2026 | 08:54 | 7.1 | 96 | 6.5 | 1023.3 | 0.0 | WNW | 46 | 0.0 |
| 26.02.2026 | 08:57 | 7.1 | 96 | 6.5 | 1023.3 | 0.0 | SO | 46 | 0.0 |
| 26.02.2026 | 09:03 | 7.1 | 96 | 6.5 | 1023.2 | 1.4 | SSO | 51 | 0.0 |
| 26.02.2026 | 09:09 | 7.1 | 96 | 6.5 | 1023.1 | 0.0 | SSO | 70 | 0.0 |
| 26.02.2026 | 09:12 | 7.1 | 95 | 6.4 | 1023.1 | 0.0 | SSW | 70 | 0.0 |
| 26.02.2026 | 09:18 | 7.2 | 95 | 6.5 | 1023.1 | 1.4 | WSW | 77 | 0.0 |
| 26.02.2026 | 09:24 | 7.2 | 95 | 6.5 | 1023.1 | 1.4 | WSW | 86 | 0.0 |
| 26.02.2026 | 09:27 | 7.2 | 95 | 6.5 | 1023.1 | 0.0 | WNW | 86 | 0.0 |
| 26.02.2026 | 09:33 | 7.2 | 95 | 6.5 | 1023.3 | 0.0 | OSO | 84 | 0.0 |
| 26.02.2026 | 09:39 | 7.3 | 95 | 6.6 | 1023.2 | 0.0 | S | 83 | 0.0 |
| 26.02.2026 | 09:42 | 7.3 | 95 | 6.6 | 1023.1 | 0.0 | SO | 104 | 0.0 |
| 26.02.2026 | 09:48 | 7.4 | 95 | 6.7 | 1023.1 | 1.4 | SW | 113 | 0.0 |
| 26.02.2026 | 09:54 | 7.6 | 95 | 6.9 | 1023.1 | 1.4 | SSW | 120 | 0.0 |
| 26.02.2026 | 09:57 | 7.5 | 95 | 6.8 | 1023.0 | 1.4 | SSO | 130 | 0.0 |
| 26.02.2026 | 10:03 | 7.6 | 95 | 6.9 | 1023.3 | 1.4 | SSW | 120 | 0.0 |
| 26.02.2026 | 10:09 | 7.7 | 94 | 6.8 | 1023.4 | 1.4 | SW | 128 | 0.0 |
| 26.02.2026 | 10:12 | 7.7 | 94 | 6.8 | 1023.4 | 1.4 | S | 130 | 0.0 |
| 26.02.2026 | 10:18 | 7.8 | 94 | 6.9 | 1023.4 | 3.2 | SSW | 179 | 0.0 |
| 26.02.2026 | 10:24 | 7.8 | 94 | 6.9 | 1023.4 | 1.4 | SO | 163 | 0.0 |
| 26.02.2026 | 10:27 | 7.9 | 94 | 7.0 | 1023.3 | 1.4 | S | 155 | 0.0 |
| 26.02.2026 | 10:33 | 8.1 | 94 | 7.2 | 1023.2 | 1.4 | SSW | 135 | 0.0 |
| 26.02.2026 | 10:39 | 8.2 | 93 | 7.1 | 1023.3 | 1.4 | WSW | 148 | 0.0 |
| 26.02.2026 | 10:42 | 8.3 | 93 | 7.2 | 1023.3 | 1.4 | OSO | 190 | 0.0 |
| 26.02.2026 | 10:48 | 8.4 | 92 | 7.2 | 1023.3 | 1.4 | S | 227 | 0.0 |
| 26.02.2026 | 10:54 | 8.6 | 92 | 7.4 | 1023.4 | 3.2 | SSO | 181 | 0.0 |
| 26.02.2026 | 10:57 | 8.6 | 92 | 7.4 | 1023.4 | 3.2 | S | 200 | 0.0 |
| 26.02.2026 | 11:03 | 8.7 | 92 | 7.5 | 1023.5 | 1.4 | SSW | 218 | 0.0 |
| 26.02.2026 | 11:09 | 8.9 | 92 | 7.7 | 1023.5 | 1.4 | SSO | 279 | 0.0 |
| 26.02.2026 | 11:12 | 9.1 | 92 | 7.9 | 1023.4 | 1.4 | OSO | 246 | 0.0 |
| 26.02.2026 | 11:18 | 9.3 | 90 | 7.7 | 1023.3 | 3.2 | OSO | 399 | 0.0 |
| 26.02.2026 | 11:24 | 9.7 | 90 | 8.1 | 1023.3 | 3.2 | OSO | 417 | 0.0 |
| 26.02.2026 | 11:27 | 9.9 | 89 | 8.2 | 1023.3 | 3.2 | OSO | 425 | 0.0 |
| 26.02.2026 | 11:33 | 10.3 | 88 | 8.4 | 1023.3 | 4.7 | SO | 432 | 0.2 |
| 26.02.2026 | 11:39 | 10.6 | 87 | 8.5 | 1023.3 | 4.7 | OSO | 436 | 0.2 |
| 26.02.2026 | 11:42 | 10.7 | 87 | 8.6 | 1023.2 | 4.7 | SO | 431 | 0.2 |
| 26.02.2026 | 11:48 | 10.9 | 86 | 8.6 | 1023.3 | 4.7 | SO | 432 | 0.2 |
| 26.02.2026 | 11:54 | 11.1 | 85 | 8.7 | 1023.3 | 3.2 | SO | 436 | 0.2 |
| 26.02.2026 | 11:57 | 11.1 | 85 | 8.7 | 1023.2 | 4.7 | OSO | 438 | 0.2 |
| 26.02.2026 | 12:03 | 11.1 | 85 | 8.7 | 1023.3 | 4.7 | SSW | 439 | 0.2 |
| 26.02.2026 | 12:09 | 11.3 | 86 | 9.0 | 1023.2 | 3.2 | SSO | 443 | 0.2 |
| 26.02.2026 | 12:12 | 11.4 | 85 | 9.0 | 1023.1 | 3.2 | SO | 443 | 0.2 |
| 26.02.2026 | 12:18 | 11.7 | 85 | 9.3 | 1022.9 | 3.2 | SW | 443 | 0.2 |
| 26.02.2026 | 12:24 | 11.9 | 84 | 9.3 | 1022.9 | 3.2 | SSO | 445 | 0.2 |
| 26.02.2026 | 12:27 | 12.1 | 84 | 9.5 | 1022.7 | 3.2 | SSW | 446 | 0.2 |
| 26.02.2026 | 12:33 | 12.5 | 83 | 9.7 | 1022.7 | 3.2 | SO | 443 | 0.2 |
| 26.02.2026 | 12:39 | 12.8 | 82 | 9.8 | 1022.7 | 3.2 | OSO | 443 | 0.2 |
| 26.02.2026 | 12:42 | 12.9 | 81 | 9.7 | 1022.7 | 3.2 | SO | 443 | 0.2 |
| 26.02.2026 | 12:48 | 13.2 | 81 | 10.0 | 1022.7 | 3.2 | SSW | 443 | 0.2 |
| 26.02.2026 | 12:54 | 13.3 | 81 | 10.1 | 1022.6 | 3.2 | SW | 443 | 0.2 |
| 26.02.2026 | 12:57 | 13.4 | 80 | 10.0 | 1022.7 | 3.2 | SSO | 441 | 0.2 |
| 26.02.2026 | 13:03 | 13.6 | 80 | 10.2 | 1022.7 | 3.2 | SSO | 438 | 0.2 |
| 26.02.2026 | 13:09 | 13.9 | 79 | 10.3 | 1022.5 | 3.2 | OSO | 432 | 0.2 |
| 26.02.2026 | 13:12 | 14.1 | 79 | 10.5 | 1022.5 | 3.2 | SSW | 431 | 0.2 |
| 26.02.2026 | 13:18 | 14.3 | 78 | 10.5 | 1022.4 | 3.2 | SSW | 429 | 0.2 |
| 26.02.2026 | 13:24 | 14.4 | 77 | 10.4 | 1022.5 | 4.7 | SW | 262 | 0.2 |
| 26.02.2026 | 13:27 | 14.4 | 77 | 10.4 | 1022.4 | 3.2 | SSW | 422 | 0.2 |
| 26.02.2026 | 13:33 | 14.6 | 76 | 10.4 | 1022.4 | 4.7 | SO | 418 | 0.2 |
| 26.02.2026 | 13:39 | 14.7 | 77 | 10.7 | 1022.4 | 4.7 | SW | 413 | 0.2 |
| 26.02.2026 | 13:42 | 14.7 | 76 | 10.5 | 1022.3 | 3.2 | SW | 410 | 0.2 |
| 26.02.2026 | 13:48 | 15.0 | 76 | 10.8 | 1022.1 | 3.2 | SSW | 403 | 0.2 |
| 26.02.2026 | 13:54 | 15.2 | 75 | 10.8 | 1021.8 | 3.2 | S | 397 | 0.2 |
| 26.02.2026 | 13:57 | 15.2 | 75 | 10.8 | 1021.9 | 3.2 | OSO | 396 | 0.2 |
| 26.02.2026 | 14:03 | 15.3 | 74 | 10.7 | 1021.7 | 4.7 | WNW | 388 | 0.2 |
| 26.02.2026 | 14:09 | 15.7 | 74 | 11.1 | 1021.8 | 3.2 | SSW | 383 | 0.2 |
| 26.02.2026 | 14:12 | 15.7 | 73 | 10.9 | 1021.8 | 3.2 | SO | 378 | 0.2 |
| 26.02.2026 | 14:18 | 15.8 | 73 | 11.0 | 1021.8 | 4.7 | S | 367 | 0.2 |
| 26.02.2026 | 14:24 | 16.0 | 72 | 11.0 | 1021.7 | 3.2 | SSO | 359 | 0.2 |
| 26.02.2026 | 14:27 | 16.1 | 73 | 11.3 | 1021.7 | 3.2 | S | 352 | 0.2 |
| 26.02.2026 | 14:33 | 16.2 | 73 | 11.4 | 1021.7 | 3.2 | SSW | 348 | 0.2 |
| 26.02.2026 | 14:39 | 16.2 | 73 | 11.4 | 1021.7 | 4.7 | SSO | 338 | 0.2 |
| 26.02.2026 | 14:42 | 16.2 | 73 | 11.4 | 1021.5 | 3.2 | S | 334 | 0.2 |
| 26.02.2026 | 14:48 | 16.3 | 73 | 11.5 | 1021.6 | 3.2 | SSO | 322 | 0.2 |
| 26.02.2026 | 14:54 | 16.6 | 73 | 11.7 | 1021.5 | 3.2 | S | 311 | 0.2 |
| 26.02.2026 | 14:57 | 16.7 | 72 | 11.6 | 1021.4 | 3.2 | S | 306 | 0.2 |
| 26.02.2026 | 15:03 | 16.8 | 71 | 11.5 | 1021.3 | 3.2 | SO | 299 | 0.2 |
| 26.02.2026 | 15:09 | 17.1 | 67 | 10.9 | 1021.3 | 6.5 | S | 292 | 0.2 |
| 26.02.2026 | 15:12 | 17.1 | 66 | 10.7 | 1021.3 | 6.5 | S | 287 | 0.2 |
| 26.02.2026 | 15:18 | 17.3 | 65 | 10.7 | 1021.1 | 6.5 | SO | 276 | 0.2 |
| 26.02.2026 | 15:24 | 17.3 | 67 | 11.1 | 1021.1 | 6.5 | SSO | 265 | 0.2 |
| 26.02.2026 | 15:27 | 17.4 | 67 | 11.2 | 1021.1 | 7.9 | WSW | 258 | 0.2 |
| 26.02.2026 | 15:33 | 17.4 | 67 | 11.2 | 1021.1 | 6.5 | O | 236 | 0.2 |
| 26.02.2026 | 15:39 | 17.4 | 66 | 11.0 | 1021.2 | 6.5 | OSO | 227 | 0.2 |
| 26.02.2026 | 15:42 | 17.5 | 66 | 11.1 | 1021.1 | 6.5 | S | 227 | 0.2 |
| 26.02.2026 | 15:48 | 17.7 | 65 | 11.0 | 1021.2 | 4.7 | SO | 213 | 0.2 |
| 26.02.2026 | 15:54 | 17.6 | 65 | 10.9 | 1021.3 | 4.7 | SSO | 197 | 0.2 |
| 26.02.2026 | 15:57 | 17.6 | 64 | 10.7 | 1021.4 | 6.5 | OSO | 188 | 0.2 |
| 26.02.2026 | 16:03 | 17.5 | 65 | 10.8 | 1021.3 | 4.7 | O | 174 | 0.2 |
| 26.02.2026 | 16:09 | 17.6 | 63 | 10.5 | 1021.3 | 4.7 | SW | 158 | 0.2 |
| 26.02.2026 | 16:12 | 17.5 | 63 | 10.4 | 1021.3 | 6.5 | SSO | 151 | 0.2 |
| 26.02.2026 | 16:18 | 17.3 | 63 | 10.2 | 1021.3 | 6.5 | WSW | 137 | 0.2 |
| 26.02.2026 | 16:24 | 17.2 | 63 | 10.1 | 1021.3 | 6.5 | SSO | 125 | 0.2 |
| 26.02.2026 | 16:27 | 17.2 | 63 | 10.1 | 1021.3 | 6.5 | SO | 116 | 0.2 |
| 26.02.2026 | 16:33 | 17.2 | 63 | 10.1 | 1021.4 | 4.7 | SSW | 104 | 0.2 |
| 26.02.2026 | 16:39 | 17.0 | 63 | 9.9 | 1021.4 | 4.7 | WNW | 69 | 0.2 |
| 26.02.2026 | 16:42 | 16.9 | 64 | 10.0 | 1021.3 | 4.7 | S | 53 | 0.2 |
| 26.02.2026 | 16:48 | 16.7 | 64 | 9.9 | 1021.3 | 4.7 | S | 44 | 0.2 |
| 26.02.2026 | 16:54 | 16.5 | 65 | 9.9 | 1021.4 | 4.7 | SSO | 40 | 0.2 |
| 26.02.2026 | 16:57 | 16.4 | 66 | 10.0 | 1021.3 | 3.2 | SSW | 39 | 0.2 |
| 26.02.2026 | 17:03 | 16.3 | 66 | 9.9 | 1021.4 | 3.2 | SO | 37 | 0.2 |
| 26.02.2026 | 17:09 | 16.2 | 66 | 9.8 | 1021.4 | 3.2 | S | 33 | 0.2 |
| 26.02.2026 | 17:12 | 16.1 | 66 | 9.7 | 1021.4 | 3.2 | W | 32 | 0.2 |
| 26.02.2026 | 17:18 | 16.1 | 67 | 10.0 | 1021.5 | 3.2 | S | 28 | 0.2 |
| 26.02.2026 | 17:24 | 15.8 | 68 | 9.9 | 1021.5 | 1.4 | WSW | 25 | 0.2 |
| 26.02.2026 | 17:27 | 15.7 | 69 | 10.0 | 1021.5 | 1.4 | SSW | 23 | 0.2 |
| 26.02.2026 | 17:33 | 15.4 | 70 | 10.0 | 1021.5 | 1.4 | SW | 19 | 0.2 |
| 26.02.2026 | 17:39 | 15.2 | 70 | 9.8 | 1021.5 | 1.4 | W | 16 | 0.2 |
| 26.02.2026 | 17:42 | 15.1 | 71 | 9.9 | 1021.5 | 1.4 | W | 14 | 0.2 |
| 26.02.2026 | 17:48 | 14.7 | 73 | 9.9 | 1021.5 | 1.4 | SW | 11 | 0.2 |
| 26.02.2026 | 17:54 | 14.4 | 74 | 9.8 | 1021.5 | 1.4 | SW | 9 | 0.2 |
| 26.02.2026 | 17:57 | 14.2 | 75 | 9.8 | 1021.5 | 1.4 | SW | 9 | 0.2 |
| 26.02.2026 | 18:03 | 13.8 | 76 | 9.6 | 1021.4 | 0.0 | S | 5 | 0.2 |
| 26.02.2026 | 18:09 | 13.5 | 77 | 9.5 | 1021.5 | 0.0 | S | 0 | 0.2 |
| 26.02.2026 | 18:12 | 13.3 | 78 | 9.5 | 1021.6 | 0.0 | S | 0 | 0.2 |
| 26.02.2026 | 18:18 | 12.9 | 79 | 9.3 | 1021.6 | 1.4 | SSW | 0 | 0.2 |
| 26.02.2026 | 18:24 | 12.6 | 80 | 9.2 | 1021.6 | 0.0 | SSW | 0 | 0.2 |
| 26.02.2026 | 18:27 | 12.4 | 80 | 9.0 | 1021.6 | 0.0 | SSW | 0 | 0.2 |
| 26.02.2026 | 18:33 | 12.1 | 81 | 8.9 | 1021.6 | 0.0 | SSW | 0 | 0.2 |
| 26.02.2026 | 18:39 | 11.7 | 82 | 8.7 | 1021.6 | 0.0 | SSW | 0 | 0.2 |
| 26.02.2026 | 18:42 | 11.5 | 83 | 8.7 | 1021.7 | 0.0 | SSW | 0 | 0.2 |
| 26.02.2026 | 18:48 | 11.2 | 84 | 8.6 | 1021.7 | 0.0 | SSW | 0 | 0.2 |
| 26.02.2026 | 18:54 | 10.9 | 85 | 8.5 | 1021.7 | 0.0 | SSW | 0 | 0.2 |
| 26.02.2026 | 18:57 | 10.8 | 85 | 8.4 | 1021.7 | 0.0 | SSW | 0 | 0.2 |
| 26.02.2026 | 19:03 | 10.5 | 86 | 8.3 | 1021.7 | 0.0 | SSW | 0 | 0.2 |
| 26.02.2026 | 19:09 | 10.3 | 86 | 8.1 | 1021.7 | 0.0 | SSO | 0 | 0.2 |
| 26.02.2026 | 19:12 | 10.2 | 87 | 8.1 | 1021.7 | 0.0 | SSO | 0 | 0.2 |
| 26.02.2026 | 19:18 | 10.1 | 87 | 8.0 | 1021.7 | 0.0 | SSO | 0 | 0.2 |
| 26.02.2026 | 19:24 | 9.8 | 87 | 7.7 | 1021.8 | 1.4 | SSO | 0 | 0.2 |
| 26.02.2026 | 19:27 | 9.8 | 87 | 7.7 | 1021.8 | 1.4 | SSO | 0 | 0.2 |
| 26.02.2026 | 19:33 | 9.6 | 88 | 7.7 | 1021.8 | 0.0 | SSO | 0 | 0.2 |
| 26.02.2026 | 19:39 | 9.4 | 88 | 7.5 | 1021.8 | 0.0 | SSO | 0 | 0.2 |
| 26.02.2026 | 19:42 | 9.3 | 88 | 7.4 | 1021.8 | 0.0 | SSO | 0 | 0.2 |
| 26.02.2026 | 19:48 | 9.2 | 89 | 7.5 | 1021.8 | 0.0 | SSO | 0 | 0.2 |
| 26.02.2026 | 19:54 | 9.0 | 89 | 7.3 | 1021.7 | 1.4 | SSO | 0 | 0.2 |
| 26.02.2026 | 19:57 | 8.9 | 89 | 7.2 | 1021.7 | 1.4 | SSO | 0 | 0.2 |
| 26.02.2026 | 20:03 | 8.8 | 90 | 7.2 | 1021.7 | 1.4 | SSO | 0 | 0.2 |
| 26.02.2026 | 20:09 | 8.7 | 90 | 7.2 | 1021.7 | 1.4 | SSO | 0 | 0.2 |
| 26.02.2026 | 20:12 | 8.6 | 90 | 7.1 | 1021.7 | 0.0 | SSO | 0 | 0.2 |
| 26.02.2026 | 20:18 | 8.5 | 90 | 7.0 | 1021.8 | 0.0 | SSO | 0 | 0.2 |
| 26.02.2026 | 20:24 | 8.4 | 90 | 6.9 | 1021.7 | 0.0 | SSO | 0 | 0.2 |
| 26.02.2026 | 20:27 | 8.3 | 90 | 6.8 | 1021.8 | 0.0 | SSO | 0 | 0.2 |
| 26.02.2026 | 20:33 | 8.2 | 91 | 6.8 | 1021.6 | 1.4 | SSO | 0 | 0.2 |
| 26.02.2026 | 20:39 | 8.1 | 91 | 6.7 | 1021.6 | 1.4 | SSO | 0 | 0.2 |
| 26.02.2026 | 20:42 | 8.0 | 91 | 6.6 | 1021.6 | 1.4 | SSO | 0 | 0.2 |
| 26.02.2026 | 20:48 | 7.8 | 91 | 6.4 | 1021.5 | 0.0 | SSO | 0 | 0.2 |
| 26.02.2026 | 20:54 | 7.8 | 91 | 6.4 | 1021.6 | 0.0 | SSO | 0 | 0.2 |
| 26.02.2026 | 20:57 | 7.7 | 91 | 6.3 | 1021.6 | 0.0 | SSO | 0 | 0.2 |
| 26.02.2026 | 21:03 | 7.7 | 92 | 6.5 | 1021.6 | 0.0 | SSO | 0 | 0.2 |
| 26.02.2026 | 21:09 | 7.6 | 92 | 6.4 | 1021.6 | 1.4 | SSO | 0 | 0.2 |
| 26.02.2026 | 21:12 | 7.5 | 92 | 6.3 | 1021.6 | 0.0 | SSO | 0 | 0.2 |
| 26.02.2026 | 21:18 | 7.4 | 92 | 6.2 | 1021.5 | 0.0 | SSO | 0 | 0.2 |
| 26.02.2026 | 21:24 | 7.3 | 92 | 6.1 | 1021.5 | 0.0 | SSO | 0 | 0.2 |
| 26.02.2026 | 21:27 | 7.3 | 92 | 6.1 | 1021.4 | 0.0 | SSO | 0 | 0.2 |
| 26.02.2026 | 21:33 | 7.2 | 92 | 6.0 | 1021.5 | 0.0 | SSO | 0 | 0.2 |
| 26.02.2026 | 21:39 | 7.1 | 92 | 5.9 | 1021.5 | 0.0 | SSO | 0 | 0.2 |
| 26.02.2026 | 21:42 | 7.1 | 92 | 5.9 | 1021.5 | 0.0 | SSO | 0 | 0.2 |
| 26.02.2026 | 21:48 | 7.0 | 92 | 5.8 | 1021.5 | 0.0 | SSO | 0 | 0.2 |
| 26.02.2026 | 21:54 | 6.9 | 92 | 5.7 | 1021.4 | 0.0 | SSO | 0 | 0.2 |
| 26.02.2026 | 21:57 | 6.9 | 92 | 5.7 | 1021.4 | 0.0 | SSO | 0 | 0.2 |
| 26.02.2026 | 22:03 | 6.8 | 93 | 5.7 | 1021.5 | 1.4 | SSO | 0 | 0.2 |
| 26.02.2026 | 22:09 | 6.8 | 93 | 5.7 | 1021.5 | 0.0 | SSO | 0 | 0.2 |
| 26.02.2026 | 22:12 | 6.7 | 93 | 5.6 | 1021.5 | 0.0 | SSO | 0 | 0.2 |
| 26.02.2026 | 22:18 | 6.6 | 92 | 5.4 | 1021.5 | 1.4 | SSO | 0 | 0.2 |
| 26.02.2026 | 22:24 | 6.6 | 93 | 5.5 | 1021.5 | 1.4 | SSO | 0 | 0.2 |
| 26.02.2026 | 22:27 | 6.6 | 93 | 5.5 | 1021.5 | 1.4 | SSO | 0 | 0.2 |
| 26.02.2026 | 22:33 | 6.5 | 93 | 5.4 | 1021.5 | 0.0 | SSO | 0 | 0.2 |
| 26.02.2026 | 22:39 | 6.4 | 93 | 5.4 | 1021.5 | 0.0 | SSO | 0 | 0.2 |
| 26.02.2026 | 22:42 | 6.4 | 93 | 5.4 | 1021.5 | 0.0 | SSO | 0 | 0.2 |
| 26.02.2026 | 22:48 | 6.3 | 93 | 5.3 | 1021.4 | 1.4 | SSO | 0 | 0.2 |
| 26.02.2026 | 22:54 | 6.3 | 93 | 5.3 | 1021.3 | 1.4 | SSO | 0 | 0.2 |
| 26.02.2026 | 22:57 | 6.2 | 93 | 5.2 | 1021.3 | 0.0 | SSO | 0 | 0.2 |
| 26.02.2026 | 23:03 | 6.2 | 93 | 5.2 | 1021.3 | 0.0 | SSO | 0 | 0.2 |
| 26.02.2026 | 23:09 | 6.1 | 93 | 5.1 | 1021.2 | 0.0 | SSO | 0 | 0.2 |
| 26.02.2026 | 23:12 | 6.0 | 93 | 5.0 | 1021.2 | 0.0 | SSO | 0 | 0.2 |
| 26.02.2026 | 23:18 | 5.9 | 93 | 4.9 | 1021.2 | 1.4 | SSO | 0 | 0.2 |
| 26.02.2026 | 23:24 | 5.8 | 93 | 4.8 | 1021.2 | 0.0 | SSO | 0 | 0.2 |
| 26.02.2026 | 23:27 | 5.8 | 93 | 4.8 | 1021.2 | 0.0 | SSO | 0 | 0.2 |
| 26.02.2026 | 23:33 | 5.8 | 93 | 4.8 | 1021.2 | 0.0 | SSO | 0 | 0.2 |
| 26.02.2026 | 23:39 | 5.7 | 93 | 4.7 | 1021.1 | 0.0 | SSO | 0 | 0.2 |
| 26.02.2026 | 23:42 | 5.7 | 93 | 4.7 | 1021.1 | 0.0 | SSO | 0 | 0.2 |
| 26.02.2026 | 23:48 | 5.6 | 93 | 4.6 | 1021.1 | 0.0 | SSO | 0 | 0.2 |
| 26.02.2026 | 23:54 | 5.6 | 93 | 4.6 | 1020.9 | 0.0 | SSO | 0 | 0.2 |
| 26.02.2026 | 23:57 | 5.5 | 93 | 4.5 | 1021.0 | 0.0 | SSO | 0 | 0.2 |